createdAt,value
2023-05-04T00:01:03.178Z,4.07
2023-05-04T00:03:30.889Z,2.33
2023-05-04T00:05:58.363Z,3.42
2023-05-04T00:08:25.866Z,2.40
2023-05-04T00:10:54.387Z,2.55
2023-05-04T00:13:22.174Z,3.40
2023-05-04T00:15:49.571Z,6.82
2023-05-04T00:18:16.975Z,3.80
2023-05-04T00:20:44.372Z,5.50
2023-05-04T00:23:11.741Z,2.72
2023-05-04T00:25:39.214Z,2.60
2023-05-04T00:28:06.712Z,2.40
2023-05-04T00:30:34.236Z,2.63
2023-05-04T00:33:01.978Z,4.70
2023-05-04T00:35:31.728Z,4.10
2023-05-04T00:37:59.164Z,3.47
2023-05-04T00:40:26.604Z,10.63
2023-05-04T00:42:54.034Z,10.35
2023-05-04T00:45:21.597Z,6.60
2023-05-04T00:47:49.717Z,4.68
2023-05-04T00:50:17.271Z,4.53
2023-05-04T00:52:46.878Z,5.22
2023-05-04T00:55:14.535Z,5.95
2023-05-04T00:57:42.174Z,6.00
2023-05-04T01:00:13.206Z,5.63
2023-05-04T01:02:41.702Z,4.22
2023-05-04T01:05:11.044Z,3.67
2023-05-04T01:07:58.759Z,5.35
2023-05-04T01:10:34.530Z,5.18
2023-05-04T01:13:09.601Z,3.20
2023-05-04T01:15:37.197Z,3.33
2023-05-04T01:18:04.725Z,2.95
2023-05-04T01:20:34.547Z,4.03
2023-05-04T01:23:03.643Z,4.32
2023-05-04T01:25:42.992Z,3.17
2023-05-04T01:28:19.783Z,3.45
2023-05-04T01:30:52.238Z,4.18
2023-05-04T01:33:21.086Z,2.58
2023-05-04T01:35:49.348Z,2.88
2023-05-04T01:38:16.753Z,3.08
2023-05-04T01:40:44.074Z,3.17
2023-05-04T01:43:13.083Z,3.65
2023-05-04T01:45:40.486Z,2.60
2023-05-04T01:48:07.982Z,3.10
2023-05-04T01:50:35.815Z,4.03
2023-05-04T01:53:03.274Z,2.72
2023-05-04T01:55:31.530Z,1.92
2023-05-04T01:57:58.990Z,3.38
2023-05-04T02:00:26.816Z,3.08
2023-05-04T02:02:54.392Z,5.55
2023-05-04T02:05:21.940Z,2.40
2023-05-04T02:07:49.514Z,2.53
2023-05-04T02:10:17.105Z,3.25
2023-05-04T02:12:44.583Z,3.17
2023-05-04T02:15:12.240Z,2.53
2023-05-04T02:17:39.719Z,2.53
2023-05-04T02:20:07.873Z,3.40
2023-05-04T02:22:35.969Z,2.88
2023-05-04T02:25:03.496Z,2.28
2023-05-04T02:27:31.079Z,4.03
2023-05-04T02:29:58.912Z,4.30
2023-05-04T02:32:26.866Z,2.88
2023-05-04T02:34:54.459Z,4.28
2023-05-04T02:37:22.215Z,5.00
2023-05-04T02:39:49.554Z,5.03
2023-05-04T02:42:17.548Z,4.70
2023-05-04T02:44:45.261Z,4.78
2023-05-04T02:47:12.762Z,4.63
2023-05-04T02:49:40.191Z,3.63
2023-05-04T02:52:07.945Z,3.03
2023-05-04T02:54:35.380Z,3.10
2023-05-04T02:57:02.988Z,3.00
2023-05-04T02:59:30.430Z,2.25
2023-05-04T03:01:57.817Z,5.60
2023-05-04T03:04:25.321Z,6.68
2023-05-04T03:06:52.766Z,4.40
2023-05-04T03:09:20.607Z,3.97
2023-05-04T03:11:48.052Z,4.00
2023-05-04T03:14:15.510Z,2.92
2023-05-04T03:16:43.438Z,4.18
2023-05-04T03:19:10.949Z,4.88
2023-05-04T03:21:38.383Z,3.08
2023-05-04T03:24:06.148Z,2.42
2023-05-04T03:26:33.753Z,2.25
2023-05-04T03:29:01.569Z,5.40
2023-05-04T03:31:29.612Z,2.95
2023-05-04T03:33:57.307Z,2.63
2023-05-04T03:36:25.491Z,3.38
2023-05-04T03:38:52.958Z,3.17
2023-05-04T03:41:21.203Z,4.25
2023-05-04T03:43:48.672Z,3.20
2023-05-04T03:46:16.118Z,2.97
2023-05-04T03:48:43.550Z,2.75
2023-05-04T03:51:14.610Z,3.58
2023-05-04T03:53:44.566Z,3.95
2023-05-04T03:56:13.379Z,6.20
2023-05-04T03:58:41.224Z,5.88
2023-05-04T04:01:08.787Z,8.40
2023-05-04T04:03:39.147Z,6.05
2023-05-04T04:06:09.796Z,7.45
2023-05-04T04:08:38.001Z,3.75
2023-05-04T04:11:05.519Z,5.88
2023-05-04T04:13:32.933Z,9.50
2023-05-04T04:16:00.458Z,5.63
2023-05-04T04:18:27.895Z,5.68
2023-05-04T04:20:55.550Z,4.80
2023-05-04T04:23:22.960Z,3.97
2023-05-04T04:25:51.220Z,5.40
2023-05-04T04:28:18.577Z,4.57
2023-05-04T04:30:46.303Z,3.47
2023-05-04T04:33:15.069Z,5.45
2023-05-04T04:35:42.502Z,10.65
2023-05-04T04:38:10.261Z,12.73
2023-05-04T04:40:37.718Z,7.53
2023-05-04T04:43:05.596Z,7.93
2023-05-04T04:45:34.040Z,3.65
2023-05-04T04:48:01.880Z,6.13
2023-05-04T04:50:29.672Z,8.65
2023-05-04T04:52:57.134Z,6.63
2023-05-04T04:55:26.094Z,8.68
2023-05-04T04:57:54.311Z,20.50
2023-05-04T05:00:23.078Z,14.88
2023-05-04T05:02:50.615Z,23.17
2023-05-04T05:05:18.151Z,14.45
2023-05-04T05:07:45.705Z,9.63
2023-05-04T05:10:13.272Z,13.18
2023-05-04T05:12:40.838Z,12.50
2023-05-04T05:15:09.383Z,14.85
2023-05-04T05:17:37.634Z,26.27
2023-05-04T05:20:10.614Z,13.52
2023-05-04T05:22:38.803Z,21.42
2023-05-04T05:25:10.050Z,18.83
2023-05-04T05:27:37.776Z,24.55
2023-05-04T05:30:06.302Z,13.35
2023-05-04T05:32:34.198Z,14.20
2023-05-04T05:35:01.742Z,16.10
2023-05-04T05:37:29.160Z,12.52
2023-05-04T05:39:56.860Z,10.27
2023-05-04T05:42:24.487Z,13.75
2023-05-04T05:44:52.263Z,14.68
2023-05-04T05:47:20.101Z,14.02
2023-05-04T05:49:47.833Z,17.13
2023-05-04T05:52:15.512Z,11.50
2023-05-04T05:54:43.158Z,8.35
2023-05-04T05:57:10.884Z,8.20
2023-05-04T05:59:38.578Z,10.73
2023-05-04T06:02:06.281Z,5.00
2023-05-04T06:04:34.375Z,12.55
2023-05-04T06:07:02.049Z,6.40
2023-05-04T06:09:29.718Z,10.50
2023-05-04T06:11:57.970Z,6.13
2023-05-04T06:14:25.701Z,11.90
2023-05-04T06:16:53.480Z,12.13
2023-05-04T06:19:21.184Z,9.07
2023-05-04T06:21:49.664Z,9.25
2023-05-04T06:24:17.382Z,8.18
2023-05-04T06:26:45.067Z,10.52
2023-05-04T06:29:12.726Z,7.40
2023-05-04T06:31:40.421Z,6.63
2023-05-04T06:34:08.144Z,9.68
2023-05-04T06:36:36.386Z,10.35
2023-05-04T06:39:04.045Z,6.57
2023-05-04T06:41:31.608Z,9.60
2023-05-04T06:43:59.966Z,8.18
2023-05-04T06:46:27.388Z,4.03
2023-05-04T06:48:54.847Z,4.10
2023-05-04T06:51:22.271Z,4.35
2023-05-04T06:53:49.674Z,4.93
2023-05-04T06:56:17.127Z,4.82
2023-05-04T06:58:44.532Z,4.00
2023-05-04T07:01:12.354Z,4.82
2023-05-04T07:03:39.802Z,3.78
2023-05-04T07:06:07.710Z,3.97
2023-05-04T07:08:35.127Z,3.05
2023-05-04T07:11:02.685Z,4.35
2023-05-04T07:13:30.066Z,4.07
2023-05-04T07:15:57.513Z,4.68
2023-05-04T07:18:24.999Z,5.28
2023-05-04T07:20:54.272Z,4.78
2023-05-04T07:23:23.489Z,6.32
2023-05-04T07:25:53.534Z,4.32
2023-05-04T07:28:21.074Z,7.10
2023-05-04T07:30:48.506Z,4.65
2023-05-04T07:33:15.904Z,7.63
2023-05-04T07:35:43.307Z,5.78
2023-05-04T07:38:10.899Z,6.10
2023-05-04T07:40:38.356Z,9.27
2023-05-04T07:43:05.833Z,7.28
2023-05-04T07:45:33.296Z,11.05
2023-05-04T07:48:00.730Z,6.93
2023-05-04T07:50:28.891Z,5.72
2023-05-04T07:52:56.338Z,5.15
2023-05-04T07:55:25.165Z,6.93
2023-05-04T07:57:52.537Z,6.68
2023-05-04T08:00:21.487Z,9.93
2023-05-04T08:02:49.685Z,5.57
2023-05-04T08:05:17.450Z,4.78
2023-05-04T08:07:44.838Z,4.95
2023-05-04T08:10:12.278Z,10.00
2023-05-04T08:12:42.838Z,6.63
2023-05-04T08:15:10.702Z,4.22
2023-05-04T08:17:40.550Z,4.05
2023-05-04T08:20:09.534Z,6.30
2023-05-04T08:22:38.743Z,5.03
2023-05-04T08:25:06.968Z,6.88
2023-05-04T08:27:34.649Z,5.28
2023-05-04T08:30:02.241Z,7.00
2023-05-04T08:32:32.538Z,4.88
2023-05-04T08:35:00.703Z,5.80
2023-05-04T08:37:28.037Z,5.55
2023-05-04T08:39:56.096Z,4.53
2023-05-04T08:42:27.992Z,8.15
2023-05-04T08:44:59.228Z,5.30
2023-05-04T08:47:29.056Z,7.78
2023-05-04T08:49:56.842Z,12.05
2023-05-04T08:52:25.477Z,5.07
2023-05-04T08:54:55.816Z,6.32
2023-05-04T08:57:24.278Z,6.95
2023-05-04T08:59:53.687Z,5.75
2023-05-04T09:02:25.137Z,5.45
2023-05-04T09:04:53.468Z,10.63
2023-05-04T09:07:22.147Z,6.03
2023-05-04T09:09:53.010Z,5.53
2023-05-04T09:12:20.799Z,8.73
2023-05-04T09:14:48.158Z,8.18
2023-05-04T09:17:17.812Z,6.32
2023-05-04T09:19:45.419Z,4.45
2023-05-04T09:22:19.374Z,14.82
2023-05-04T09:24:47.000Z,8.70
2023-05-04T09:27:16.109Z,10.60
2023-05-04T09:29:43.716Z,8.85
2023-05-04T09:32:15.226Z,12.55
2023-05-04T09:34:49.579Z,6.68
2023-05-04T09:37:18.445Z,7.25
2023-05-04T09:39:57.981Z,6.57
2023-05-04T09:42:26.827Z,5.70
2023-05-04T09:45:03.350Z,12.73
2023-05-04T09:47:41.670Z,6.78
2023-05-04T09:50:19.093Z,6.78
2023-05-04T09:52:49.407Z,8.48
2023-05-04T09:55:19.488Z,5.43
2023-05-04T09:57:48.543Z,5.88
2023-05-04T10:00:17.904Z,10.35
2023-05-04T10:02:47.318Z,5.28
2023-05-04T10:05:17.431Z,7.40
2023-05-04T10:07:45.363Z,5.85
2023-05-04T10:10:14.408Z,6.25
2023-05-04T10:12:42.846Z,6.60
2023-05-04T10:15:12.369Z,6.43
2023-05-04T10:17:54.932Z,6.90
2023-05-04T10:20:30.456Z,8.25
2023-05-04T10:23:27.302Z,9.02
2023-05-04T10:26:16.331Z,9.00
2023-05-04T10:28:59.586Z,8.23
2023-05-04T10:31:40.554Z,5.95
2023-05-04T10:34:08.444Z,5.85
2023-05-04T10:36:41.729Z,7.13
2023-05-04T10:39:20.402Z,7.10
2023-05-04T10:42:06.506Z,10.50
2023-05-04T10:44:53.615Z,5.85
2023-05-04T10:47:32.852Z,5.70
2023-05-04T10:50:16.012Z,6.15
2023-05-04T10:52:54.205Z,8.43
2023-05-04T10:55:22.357Z,9.55
2023-05-04T10:57:51.788Z,5.93
2023-05-04T11:00:19.899Z,6.28
2023-05-04T11:02:49.104Z,8.52
2023-05-04T11:05:19.569Z,10.85
2023-05-04T11:07:50.856Z,7.53
2023-05-04T11:10:27.451Z,6.97
2023-05-04T11:13:02.702Z,7.70
2023-05-04T11:15:31.859Z,6.70
2023-05-04T11:17:59.322Z,5.53
2023-05-04T11:20:27.523Z,7.68
2023-05-04T11:22:55.064Z,7.50
2023-05-04T11:25:30.246Z,6.43
2023-05-04T11:27:58.746Z,13.82
2023-05-04T11:30:36.021Z,6.18
2023-05-04T11:33:11.725Z,9.93
2023-05-04T11:35:40.137Z,9.23
2023-05-04T11:38:07.697Z,6.57
2023-05-04T11:40:36.315Z,7.50
2023-05-04T11:43:04.370Z,9.02
2023-05-04T11:45:34.348Z,8.18
2023-05-04T11:48:02.314Z,8.10
2023-05-04T11:50:30.121Z,6.97
2023-05-04T11:53:12.277Z,7.75
2023-05-04T11:55:40.435Z,6.97
2023-05-04T11:58:09.835Z,7.72
2023-05-04T12:00:39.861Z,7.00
2023-05-04T12:03:15.801Z,10.43
2023-05-04T12:05:48.175Z,6.78
2023-05-04T12:08:32.356Z,6.72
2023-05-04T12:11:11.202Z,9.30
2023-05-04T12:13:39.209Z,7.00
2023-05-04T12:16:09.725Z,7.32
2023-05-04T12:18:37.244Z,7.82
2023-05-04T12:21:31.416Z,7.28
2023-05-04T12:23:59.190Z,7.75
2023-05-04T12:26:27.209Z,8.00
2023-05-04T12:28:54.577Z,8.32
2023-05-04T12:31:24.408Z,8.65
2023-05-04T12:33:52.842Z,7.75
2023-05-04T12:36:20.282Z,6.80
2023-05-04T12:38:47.594Z,7.00
2023-05-04T12:41:15.140Z,6.90
2023-05-04T12:43:43.087Z,9.05
2023-05-04T12:46:10.713Z,8.10
2023-05-04T12:48:38.209Z,8.48
2023-05-04T12:51:05.699Z,8.68
2023-05-04T12:53:33.227Z,6.95
2023-05-04T12:56:01.797Z,11.25
2023-05-04T12:58:29.473Z,7.78
2023-05-04T13:00:57.961Z,6.82
2023-05-04T13:03:25.596Z,8.10
2023-05-04T13:05:53.512Z,8.05
2023-05-04T13:08:20.981Z,9.35
2023-05-04T13:10:48.424Z,7.50
2023-05-04T13:13:17.875Z,8.25
2023-05-04T13:15:49.472Z,9.60
2023-05-04T13:18:16.864Z,6.70
2023-05-04T13:20:44.336Z,7.05
2023-05-04T13:23:11.936Z,8.85
2023-05-04T13:25:39.304Z,6.35
2023-05-04T13:28:06.776Z,5.65
2023-05-04T13:30:34.208Z,6.63
2023-05-04T13:33:05.541Z,5.97
2023-05-04T13:35:37.781Z,8.00
2023-05-04T13:38:05.120Z,7.28
2023-05-04T13:40:33.044Z,7.88
2023-05-04T13:43:00.511Z,8.25
2023-05-04T13:45:27.940Z,7.90
2023-05-04T13:47:55.504Z,7.53
2023-05-04T13:50:22.993Z,7.57
2023-05-04T13:52:50.341Z,11.35
2023-05-04T13:55:19.828Z,5.97
2023-05-04T13:57:47.232Z,7.05
2023-05-04T14:00:17.284Z,7.07
2023-05-04T14:02:45.579Z,9.52
2023-05-04T14:05:13.931Z,6.53
2023-05-04T14:07:41.340Z,6.72
2023-05-04T14:10:09.179Z,4.80
2023-05-04T14:12:36.590Z,5.72
2023-05-04T14:15:04.580Z,6.60
2023-05-04T14:17:32.646Z,5.20
2023-05-04T14:20:00.153Z,8.60
2023-05-04T14:22:28.311Z,7.78
2023-05-04T14:24:55.857Z,5.45
2023-05-04T14:27:23.975Z,6.10
2023-05-04T14:29:52.450Z,8.70
2023-05-04T14:32:19.902Z,6.40
2023-05-04T14:34:47.618Z,9.45
2023-05-04T14:37:15.050Z,8.68
2023-05-04T14:39:42.499Z,7.85
2023-05-04T14:42:09.904Z,5.60
2023-05-04T14:44:37.358Z,5.13
2023-05-04T14:47:07.406Z,4.57
2023-05-04T14:49:37.531Z,7.10
2023-05-04T14:52:05.346Z,5.10
2023-05-04T14:54:33.105Z,7.78
2023-05-04T14:57:00.456Z,5.88
2023-05-04T14:59:27.831Z,5.00
2023-05-04T15:01:57.130Z,7.55
2023-05-04T15:04:24.634Z,5.22
2023-05-04T15:06:52.935Z,8.25
2023-05-04T15:09:20.603Z,7.45
2023-05-04T15:11:48.641Z,6.20
2023-05-04T15:14:16.341Z,5.13
2023-05-04T15:16:43.722Z,5.57
2023-05-04T15:19:11.191Z,5.22
2023-05-04T15:21:38.617Z,7.88
2023-05-04T15:24:06.174Z,8.25
2023-05-04T15:26:34.669Z,5.80
2023-05-04T15:29:02.108Z,5.75
2023-05-04T15:31:29.565Z,10.73
2023-05-04T15:33:56.948Z,7.43
2023-05-04T15:36:24.788Z,7.57
2023-05-04T15:38:52.393Z,6.30
2023-05-04T15:41:19.822Z,6.22
2023-05-04T15:43:47.272Z,6.28
2023-05-04T15:46:14.799Z,6.55
2023-05-04T15:48:42.395Z,8.52
2023-05-04T15:51:13.884Z,6.70
2023-05-04T15:53:41.290Z,9.30
2023-05-04T15:56:08.898Z,7.40
2023-05-04T15:58:36.330Z,7.82
2023-05-04T16:01:04.064Z,9.30
2023-05-04T16:03:32.271Z,9.85
2023-05-04T16:05:59.896Z,7.43
2023-05-04T16:08:27.624Z,10.43
2023-05-04T16:10:55.858Z,9.82
2023-05-04T16:13:23.662Z,6.70
2023-05-04T16:15:51.950Z,8.05
2023-05-04T16:18:19.815Z,5.68
2023-05-04T16:20:48.204Z,9.38
2023-05-04T16:23:17.518Z,7.80
2023-05-04T16:25:44.920Z,5.70
2023-05-04T16:28:12.641Z,7.18
2023-05-04T16:30:42.484Z,7.22
2023-05-04T16:33:10.129Z,10.38
2023-05-04T16:35:37.728Z,10.00
2023-05-04T16:38:05.154Z,7.13
2023-05-04T16:40:32.843Z,7.80
2023-05-04T16:43:00.432Z,8.13
2023-05-04T16:45:31.706Z,8.90
2023-05-04T16:47:59.480Z,6.50
2023-05-04T16:50:26.914Z,6.40
2023-05-04T16:52:54.426Z,6.38
2023-05-04T16:55:21.926Z,6.47
2023-05-04T16:57:49.836Z,9.95
2023-05-04T17:00:17.813Z,9.30
2023-05-04T17:02:45.509Z,6.57
2023-05-04T17:05:13.024Z,6.28
2023-05-04T17:07:43.139Z,8.98
2023-05-04T17:10:11.221Z,7.60
2023-05-04T17:12:38.987Z,10.13
2023-05-04T17:15:07.029Z,8.60
2023-05-04T17:17:34.504Z,8.63
2023-05-04T17:20:02.538Z,7.38
2023-05-04T17:22:30.186Z,6.00
2023-05-04T17:24:57.596Z,8.13
2023-05-04T17:27:24.957Z,6.65
2023-05-04T17:29:52.388Z,8.05
2023-05-04T17:32:19.940Z,6.47
2023-05-04T17:34:47.421Z,9.10
2023-05-04T17:37:14.806Z,6.20
2023-05-04T17:39:42.170Z,7.78
2023-05-04T17:42:10.777Z,8.10
2023-05-04T17:44:38.181Z,6.05
2023-05-04T17:47:06.261Z,9.02
2023-05-04T17:49:33.786Z,5.50
2023-05-04T17:52:01.476Z,6.95
2023-05-04T17:54:28.916Z,7.68
2023-05-04T17:56:56.342Z,5.15
2023-05-04T17:59:23.696Z,6.82
2023-05-04T18:01:51.177Z,6.22
2023-05-04T18:04:18.546Z,6.60
2023-05-04T18:06:46.030Z,6.30
2023-05-04T18:09:13.474Z,7.53
2023-05-04T18:11:40.882Z,7.85
2023-05-04T18:14:08.320Z,8.70
2023-05-04T18:16:37.764Z,5.35
2023-05-04T18:19:06.532Z,8.68
2023-05-04T18:21:37.309Z,7.18
2023-05-04T18:24:05.103Z,7.15
2023-05-04T18:26:32.751Z,5.50
2023-05-04T18:29:11.186Z,6.22
2023-05-04T18:31:44.997Z,6.22
2023-05-04T18:34:12.552Z,9.07
2023-05-04T18:36:39.891Z,5.55
2023-05-04T18:39:08.303Z,7.22
2023-05-04T18:41:35.783Z,10.10
2023-05-04T18:44:15.684Z,6.85
2023-05-04T18:46:43.184Z,8.10
2023-05-04T18:49:10.635Z,7.72
2023-05-04T18:51:41.562Z,12.38
2023-05-04T18:54:09.185Z,8.43
2023-05-04T18:56:36.755Z,8.00
2023-05-04T18:59:06.083Z,13.45
2023-05-04T19:01:33.555Z,9.95
2023-05-04T19:04:01.186Z,8.02
2023-05-04T19:06:28.639Z,9.52
2023-05-04T19:08:56.106Z,8.07
2023-05-04T19:11:23.517Z,11.43
2023-05-04T19:13:51.228Z,14.32
2023-05-04T19:16:18.665Z,8.02
2023-05-04T19:18:46.214Z,11.85
2023-05-04T19:21:13.585Z,10.45
2023-05-04T19:23:41.150Z,12.07
2023-05-04T19:26:09.285Z,10.52
2023-05-04T19:28:36.957Z,9.30
2023-05-04T19:31:04.439Z,9.57
2023-05-04T19:33:44.605Z,9.43
2023-05-04T19:36:16.285Z,9.30
2023-05-04T19:38:43.899Z,10.48
2023-05-04T19:41:11.399Z,11.40
2023-05-04T19:43:38.843Z,12.10
2023-05-04T19:46:06.627Z,15.43
2023-05-04T19:48:34.034Z,10.90
2023-05-04T19:51:02.112Z,11.30
2023-05-04T19:53:31.124Z,11.82
2023-05-04T19:55:58.767Z,11.05
2023-05-04T19:58:28.116Z,13.73
2023-05-04T20:00:56.032Z,10.90
2023-05-04T20:03:23.701Z,11.40
2023-05-04T20:05:51.913Z,15.00
2023-05-04T20:08:20.337Z,15.02
2023-05-04T20:10:47.773Z,15.90
2023-05-04T20:13:15.237Z,12.48
2023-05-04T20:15:42.734Z,18.35
2023-05-04T20:18:10.148Z,20.10
2023-05-04T20:20:37.576Z,19.33
2023-05-04T20:23:04.947Z,19.35
2023-05-04T20:25:32.447Z,20.52
2023-05-04T20:27:59.911Z,19.30
2023-05-04T20:30:28.673Z,21.13
2023-05-04T20:32:56.199Z,17.65
2023-05-04T20:35:23.659Z,23.55
2023-05-04T20:37:51.047Z,17.88
2023-05-04T20:40:18.571Z,16.17
2023-05-04T20:42:46.001Z,20.02
2023-05-04T20:45:13.493Z,21.25
2023-05-04T20:47:41.033Z,24.10
2023-05-04T20:50:10.294Z,19.95
2023-05-04T20:52:38.565Z,32.67
2023-05-04T20:55:07.485Z,16.35
2023-05-04T20:57:35.516Z,16.67
2023-05-04T21:00:03.706Z,18.63
2023-05-04T21:02:31.216Z,17.15
2023-05-04T21:04:58.679Z,22.42
2023-05-04T21:07:26.280Z,20.75
2023-05-04T21:09:59.860Z,29.52
2023-05-04T21:12:27.205Z,26.35
2023-05-04T21:14:54.608Z,26.67
2023-05-04T21:17:22.044Z,27.73
2023-05-04T21:19:49.417Z,16.83
2023-05-04T21:22:17.702Z,20.33
2023-05-04T21:24:46.612Z,18.10
2023-05-04T21:27:14.114Z,22.10
2023-05-04T21:29:41.694Z,20.35
2023-05-04T21:32:09.234Z,19.67
2023-05-04T21:34:36.671Z,23.27
2023-05-04T21:37:04.314Z,20.20
2023-05-04T21:39:31.812Z,21.73
2023-05-04T21:41:59.159Z,22.10
2023-05-04T21:44:26.492Z,22.67
2023-05-04T21:46:54.035Z,17.00
2023-05-04T21:49:21.663Z,18.55
2023-05-04T21:51:49.219Z,19.90
2023-05-04T21:54:16.624Z,21.05
2023-05-04T21:56:44.142Z,20.50
2023-05-04T21:59:11.539Z,26.02
2023-05-04T22:01:38.916Z,18.90
2023-05-04T22:04:07.303Z,21.17
2023-05-04T22:06:34.851Z,18.27
2023-05-04T22:09:02.669Z,17.30
2023-05-04T22:11:30.299Z,19.55
2023-05-04T22:13:58.087Z,17.17
2023-05-04T22:16:25.790Z,18.73
2023-05-04T22:18:53.324Z,13.73
2023-05-04T22:21:20.775Z,17.15
2023-05-04T22:23:48.198Z,13.77
2023-05-04T22:26:15.765Z,13.10
2023-05-04T22:28:43.164Z,15.30
2023-05-04T22:31:10.692Z,13.90
2023-05-04T22:33:38.171Z,13.95
2023-05-04T22:36:05.639Z,15.88
2023-05-04T22:38:33.067Z,16.55
2023-05-04T22:41:00.624Z,18.67
2023-05-04T22:43:28.187Z,17.88
2023-05-04T22:45:55.690Z,14.60
2023-05-04T22:48:23.097Z,17.10
2023-05-04T22:50:50.882Z,15.38
2023-05-04T22:53:18.301Z,12.93
2023-05-04T22:55:45.627Z,17.42
2023-05-04T22:58:12.958Z,12.35
2023-05-04T23:00:40.501Z,12.75
2023-05-04T23:03:08.219Z,13.07
2023-05-04T23:05:35.693Z,20.33
2023-05-04T23:08:03.854Z,15.60
2023-05-04T23:10:31.292Z,16.42
2023-05-04T23:12:59.180Z,17.33
2023-05-04T23:15:26.661Z,17.08
2023-05-04T23:17:54.231Z,14.15
2023-05-04T23:20:22.175Z,13.90
2023-05-04T23:22:49.533Z,19.40
2023-05-04T23:25:16.852Z,15.25
2023-05-04T23:27:45.017Z,13.30
2023-05-04T23:30:12.578Z,15.23
2023-05-04T23:32:40.097Z,18.30
2023-05-04T23:35:08.084Z,17.70
2023-05-04T23:37:35.896Z,18.52
2023-05-04T23:40:03.605Z,15.45
2023-05-04T23:42:31.180Z,16.85
2023-05-04T23:44:58.559Z,16.80
2023-05-04T23:47:26.032Z,17.90
2023-05-04T23:49:53.605Z,19.05
2023-05-04T23:52:21.018Z,14.65
2023-05-04T23:54:53.450Z,17.00
2023-05-04T23:57:20.965Z,17.48
2023-05-04T23:59:48.330Z,15.63
